New York, New York
Traffic Map
Current Weather Conditions
New York, New York
Broken Clouds
Broken Clouds
44°
Feels Like: 40°
Wind Chill: 40° Ceiling: 1800
Heat Index: 44° Visibility: 10mi
Dew Point: 38° Wind: 8mph
Humidity: 79% Direction: 10° (N)
Pressure: 30.06in Gusts: 0mph
Raw Report DataKNYC 291151Z 01007KT 330V040 10SM BKN018 BKN025 07/03 A3006 RMK AO2 SLP172 70060 T00670033 10078 20067 51018
Traffic Incident Summary
Active as of:
Severity:
Category:
InformationThere was an issue retrieving the traffic information for this location. Please try a different location or try again shortly.
Advertisements
Track Severe Weather on mobile